sensor_id;sensor_type;location;lat;lon;timestamp;P1;durP1;ratioP1;P2;durP2;ratioP2
75928;SDS011;64606;44.062;2.986;2024-01-07T00:01:15;0.95;;;0.95;;
75928;SDS011;64606;44.062;2.986;2024-01-07T00:03:41;1.15;;;1.05;;
75928;SDS011;64606;44.062;2.986;2024-01-07T00:06:07;0.88;;;0.88;;
75928;SDS011;64606;44.062;2.986;2024-01-07T00:08:34;0.90;;;0.90;;
75928;SDS011;64606;44.062;2.986;2024-01-07T00:11:00;0.90;;;0.90;;
75928;SDS011;64606;44.062;2.986;2024-01-07T00:13:26;0.80;;;0.80;;
75928;SDS011;64606;44.062;2.986;2024-01-07T00:15:53;0.95;;;0.95;;
75928;SDS011;64606;44.062;2.986;2024-01-07T00:18:20;0.70;;;0.70;;
75928;SDS011;64606;44.062;2.986;2024-01-07T00:20:47;0.85;;;0.85;;
75928;SDS011;64606;44.062;2.986;2024-01-07T00:23:13;0.90;;;0.90;;
75928;SDS011;64606;44.062;2.986;2024-01-07T00:25:39;0.85;;;0.85;;
75928;SDS011;64606;44.062;2.986;2024-01-07T00:28:05;0.70;;;0.70;;
75928;SDS011;64606;44.062;2.986;2024-01-07T00:30:31;0.80;;;0.80;;
75928;SDS011;64606;44.062;2.986;2024-01-07T00:32:58;0.90;;;0.90;;
75928;SDS011;64606;44.062;2.986;2024-01-07T00:35:24;0.80;;;0.80;;
75928;SDS011;64606;44.062;2.986;2024-01-07T00:37:50;0.60;;;0.60;;
75928;SDS011;64606;44.062;2.986;2024-01-07T00:40:16;0.75;;;0.75;;
75928;SDS011;64606;44.062;2.986;2024-01-07T00:42:42;0.85;;;0.85;;
75928;SDS011;64606;44.062;2.986;2024-01-07T00:45:08;0.70;;;0.70;;
75928;SDS011;64606;44.062;2.986;2024-01-07T00:47:35;0.70;;;0.68;;
75928;SDS011;64606;44.062;2.986;2024-01-07T00:50:01;0.70;;;0.70;;
75928;SDS011;64606;44.062;2.986;2024-01-07T00:52:27;0.70;;;0.70;;
75928;SDS011;64606;44.062;2.986;2024-01-07T00:54:53;0.70;;;0.70;;
75928;SDS011;64606;44.062;2.986;2024-01-07T00:57:19;0.63;;;0.63;;
75928;SDS011;64606;44.062;2.986;2024-01-07T00:59:45;0.68;;;0.68;;
75928;SDS011;64606;44.062;2.986;2024-01-07T01:02:11;0.50;;;0.50;;
75928;SDS011;64606;44.062;2.986;2024-01-07T01:04:38;0.65;;;0.60;;
75928;SDS011;64606;44.062;2.986;2024-01-07T01:07:05;0.68;;;0.68;;
75928;SDS011;64606;44.062;2.986;2024-01-07T01:09:32;0.60;;;0.60;;
75928;SDS011;64606;44.062;2.986;2024-01-07T01:11:58;0.65;;;0.63;;
75928;SDS011;64606;44.062;2.986;2024-01-07T01:14:24;0.60;;;0.60;;
75928;SDS011;64606;44.062;2.986;2024-01-07T01:16:51;0.73;;;0.70;;
75928;SDS011;64606;44.062;2.986;2024-01-07T01:19:17;1.90;;;0.60;;
75928;SDS011;64606;44.062;2.986;2024-01-07T01:21:44;0.70;;;0.70;;
75928;SDS011;64606;44.062;2.986;2024-01-07T01:24:10;0.50;;;0.50;;
75928;SDS011;64606;44.062;2.986;2024-01-07T01:26:36;0.52;;;0.52;;
75928;SDS011;64606;44.062;2.986;2024-01-07T01:29:04;0.95;;;0.70;;
75928;SDS011;64606;44.062;2.986;2024-01-07T01:31:30;0.68;;;0.68;;
75928;SDS011;64606;44.062;2.986;2024-01-07T01:33:56;0.63;;;0.63;;
75928;SDS011;64606;44.062;2.986;2024-01-07T01:36:22;0.50;;;0.50;;
75928;SDS011;64606;44.062;2.986;2024-01-07T01:38:49;0.60;;;0.60;;
75928;SDS011;64606;44.062;2.986;2024-01-07T01:41:18;0.75;;;0.75;;
75928;SDS011;64606;44.062;2.986;2024-01-07T01:43:44;0.60;;;0.60;;
75928;SDS011;64606;44.062;2.986;2024-01-07T01:46:11;0.70;;;0.60;;
75928;SDS011;64606;44.062;2.986;2024-01-07T01:48:37;1.65;;;0.60;;
75928;SDS011;64606;44.062;2.986;2024-01-07T01:51:03;0.90;;;0.70;;
75928;SDS011;64606;44.062;2.986;2024-01-07T01:53:30;2.05;;;0.80;;
75928;SDS011;64606;44.062;2.986;2024-01-07T01:55:57;1.33;;;0.90;;
75928;SDS011;64606;44.062;2.986;2024-01-07T01:58:23;0.80;;;0.80;;
75928;SDS011;64606;44.062;2.986;2024-01-07T02:00:49;0.60;;;0.60;;
75928;SDS011;64606;44.062;2.986;2024-01-07T02:03:16;0.88;;;0.88;;
75928;SDS011;64606;44.062;2.986;2024-01-07T02:05:42;0.93;;;0.70;;
75928;SDS011;64606;44.062;2.986;2024-01-07T02:08:08;0.70;;;0.70;;
75928;SDS011;64606;44.062;2.986;2024-01-07T02:10:35;0.75;;;0.75;;
75928;SDS011;64606;44.062;2.986;2024-01-07T02:13:04;0.75;;;0.75;;
75928;SDS011;64606;44.062;2.986;2024-01-07T02:15:30;0.90;;;0.73;;
75928;SDS011;64606;44.062;2.986;2024-01-07T02:17:56;0.60;;;0.60;;
75928;SDS011;64606;44.062;2.986;2024-01-07T02:20:23;1.13;;;0.80;;
75928;SDS011;64606;44.062;2.986;2024-01-07T02:22:49;0.77;;;0.77;;
75928;SDS011;64606;44.062;2.986;2024-01-07T02:25:16;0.60;;;0.60;;
75928;SDS011;64606;44.062;2.986;2024-01-07T02:27:42;0.70;;;0.70;;
75928;SDS011;64606;44.062;2.986;2024-01-07T02:30:08;1.38;;;0.85;;
75928;SDS011;64606;44.062;2.986;2024-01-07T02:32:35;0.52;;;0.52;;
75928;SDS011;64606;44.062;2.986;2024-01-07T02:35:03;0.70;;;0.70;;
75928;SDS011;64606;44.062;2.986;2024-01-07T02:37:29;0.70;;;0.70;;
75928;SDS011;64606;44.062;2.986;2024-01-07T02:39:55;0.73;;;0.70;;
75928;SDS011;64606;44.062;2.986;2024-01-07T02:42:21;0.60;;;0.60;;
75928;SDS011;64606;44.062;2.986;2024-01-07T02:44:47;0.70;;;0.70;;
75928;SDS011;64606;44.062;2.986;2024-01-07T02:47:13;0.88;;;0.88;;
75928;SDS011;64606;44.062;2.986;2024-01-07T02:49:39;0.60;;;0.60;;
75928;SDS011;64606;44.062;2.986;2024-01-07T02:52:05;0.63;;;0.63;;
75928;SDS011;64606;44.062;2.986;2024-01-07T02:54:32;0.60;;;0.60;;
75928;SDS011;64606;44.062;2.986;2024-01-07T02:56:58;0.70;;;0.70;;
75928;SDS011;64606;44.062;2.986;2024-01-07T02:59:24;0.57;;;0.57;;
75928;SDS011;64606;44.062;2.986;2024-01-07T03:01:50;0.50;;;0.50;;
75928;SDS011;64606;44.062;2.986;2024-01-07T03:04:16;1.02;;;0.70;;
75928;SDS011;64606;44.062;2.986;2024-01-07T03:06:42;0.65;;;0.65;;
75928;SDS011;64606;44.062;2.986;2024-01-07T03:09:08;0.60;;;0.60;;
75928;SDS011;64606;44.062;2.986;2024-01-07T03:11:44;0.60;;;0.60;;
75928;SDS011;64606;44.062;2.986;2024-01-07T03:14:10;0.60;;;0.60;;
75928;SDS011;64606;44.062;2.986;2024-01-07T03:16:37;0.70;;;0.70;;
75928;SDS011;64606;44.062;2.986;2024-01-07T03:19:03;0.63;;;0.63;;
75928;SDS011;64606;44.062;2.986;2024-01-07T03:21:29;0.52;;;0.52;;
75928;SDS011;64606;44.062;2.986;2024-01-07T03:23:55;0.50;;;0.50;;
75928;SDS011;64606;44.062;2.986;2024-01-07T03:26:22;0.60;;;0.60;;
75928;SDS011;64606;44.062;2.986;2024-01-07T03:28:48;0.47;;;0.47;;
75928;SDS011;64606;44.062;2.986;2024-01-07T03:31:14;0.70;;;0.70;;
75928;SDS011;64606;44.062;2.986;2024-01-07T03:33:41;0.60;;;0.60;;
75928;SDS011;64606;44.062;2.986;2024-01-07T03:36:08;0.60;;;0.60;;
75928;SDS011;64606;44.062;2.986;2024-01-07T03:38:34;0.50;;;0.50;;
75928;SDS011;64606;44.062;2.986;2024-01-07T03:41:01;1.73;;;0.60;;
75928;SDS011;64606;44.062;2.986;2024-01-07T03:43:27;0.65;;;0.65;;
75928;SDS011;64606;44.062;2.986;2024-01-07T03:45:53;0.60;;;0.60;;
75928;SDS011;64606;44.062;2.986;2024-01-07T03:48:19;0.80;;;0.80;;
75928;SDS011;64606;44.062;2.986;2024-01-07T03:50:45;0.65;;;0.65;;
75928;SDS011;64606;44.062;2.986;2024-01-07T03:53:11;0.80;;;0.70;;
75928;SDS011;64606;44.062;2.986;2024-01-07T03:55:38;0.68;;;0.68;;
75928;SDS011;64606;44.062;2.986;2024-01-07T03:58:04;0.60;;;0.60;;
75928;SDS011;64606;44.062;2.986;2024-01-07T04:00:31;0.57;;;0.57;;
75928;SDS011;64606;44.062;2.986;2024-01-07T04:02:57;0.57;;;0.57;;
75928;SDS011;64606;44.062;2.986;2024-01-07T04:05:23;0.70;;;0.70;;
75928;SDS011;64606;44.062;2.986;2024-01-07T04:07:49;0.85;;;0.60;;
75928;SDS011;64606;44.062;2.986;2024-01-07T04:10:18;0.70;;;0.70;;
75928;SDS011;64606;44.062;2.986;2024-01-07T04:12:45;0.70;;;0.70;;
75928;SDS011;64606;44.062;2.986;2024-01-07T04:15:11;0.60;;;0.60;;
75928;SDS011;64606;44.062;2.986;2024-01-07T04:17:38;0.73;;;0.60;;
75928;SDS011;64606;44.062;2.986;2024-01-07T04:20:05;0.70;;;0.70;;
75928;SDS011;64606;44.062;2.986;2024-01-07T04:22:31;0.70;;;0.70;;
75928;SDS011;64606;44.062;2.986;2024-01-07T04:24:57;0.60;;;0.60;;
75928;SDS011;64606;44.062;2.986;2024-01-07T04:27:23;0.70;;;0.70;;
75928;SDS011;64606;44.062;2.986;2024-01-07T04:29:52;0.75;;;0.70;;
75928;SDS011;64606;44.062;2.986;2024-01-07T04:32:18;0.60;;;0.60;;
75928;SDS011;64606;44.062;2.986;2024-01-07T04:34:45;0.60;;;0.60;;
75928;SDS011;64606;44.062;2.986;2024-01-07T04:37:11;0.60;;;0.60;;
75928;SDS011;64606;44.062;2.986;2024-01-07T04:39:37;0.60;;;0.60;;
75928;SDS011;64606;44.062;2.986;2024-01-07T04:42:03;0.60;;;0.60;;
75928;SDS011;64606;44.062;2.986;2024-01-07T04:44:29;0.75;;;0.70;;
75928;SDS011;64606;44.062;2.986;2024-01-07T04:46:55;0.80;;;0.80;;
75928;SDS011;64606;44.062;2.986;2024-01-07T04:49:21;0.77;;;0.77;;
75928;SDS011;64606;44.062;2.986;2024-01-07T04:51:47;0.65;;;0.65;;
75928;SDS011;64606;44.062;2.986;2024-01-07T04:54:14;0.80;;;0.80;;
75928;SDS011;64606;44.062;2.986;2024-01-07T04:56:40;0.73;;;0.73;;
75928;SDS011;64606;44.062;2.986;2024-01-07T04:59:06;0.80;;;0.80;;
75928;SDS011;64606;44.062;2.986;2024-01-07T05:01:32;0.60;;;0.60;;
75928;SDS011;64606;44.062;2.986;2024-01-07T05:03:59;0.88;;;0.88;;
75928;SDS011;64606;44.062;2.986;2024-01-07T05:06:25;0.70;;;0.70;;
75928;SDS011;64606;44.062;2.986;2024-01-07T05:08:51;0.80;;;0.80;;
75928;SDS011;64606;44.062;2.986;2024-01-07T05:11:17;0.73;;;0.73;;
75928;SDS011;64606;44.062;2.986;2024-01-07T05:13:43;0.60;;;0.60;;
75928;SDS011;64606;44.062;2.986;2024-01-07T05:16:17;0.60;;;0.60;;
75928;SDS011;64606;44.062;2.986;2024-01-07T05:18:43;0.63;;;0.63;;
75928;SDS011;64606;44.062;2.986;2024-01-07T05:21:13;0.57;;;0.57;;
75928;SDS011;64606;44.062;2.986;2024-01-07T05:23:40;0.60;;;0.60;;
75928;SDS011;64606;44.062;2.986;2024-01-07T05:26:06;0.60;;;0.60;;
75928;SDS011;64606;44.062;2.986;2024-01-07T05:28:32;0.50;;;0.50;;
75928;SDS011;64606;44.062;2.986;2024-01-07T05:30:58;0.60;;;0.60;;
75928;SDS011;64606;44.062;2.986;2024-01-07T05:33:24;0.95;;;0.70;;
75928;SDS011;64606;44.062;2.986;2024-01-07T05:35:50;0.77;;;0.77;;
75928;SDS011;64606;44.062;2.986;2024-01-07T05:38:16;2.85;;;0.70;;
75928;SDS011;64606;44.062;2.986;2024-01-07T05:40:42;0.70;;;0.70;;
75928;SDS011;64606;44.062;2.986;2024-01-07T05:43:08;0.80;;;0.80;;
75928;SDS011;64606;44.062;2.986;2024-01-07T05:45:35;0.90;;;0.90;;
75928;SDS011;64606;44.062;2.986;2024-01-07T05:48:01;0.95;;;0.90;;
75928;SDS011;64606;44.062;2.986;2024-01-07T05:50:27;0.90;;;0.90;;
75928;SDS011;64606;44.062;2.986;2024-01-07T05:52:53;0.70;;;0.70;;
75928;SDS011;64606;44.062;2.986;2024-01-07T05:55:19;0.80;;;0.80;;
75928;SDS011;64606;44.062;2.986;2024-01-07T05:57:45;0.85;;;0.85;;
75928;SDS011;64606;44.062;2.986;2024-01-07T06:00:11;1.25;;;1.08;;
75928;SDS011;64606;44.062;2.986;2024-01-07T06:02:38;1.00;;;0.90;;
75928;SDS011;64606;44.062;2.986;2024-01-07T06:05:05;0.80;;;0.80;;
75928;SDS011;64606;44.062;2.986;2024-01-07T06:07:31;0.80;;;0.80;;
75928;SDS011;64606;44.062;2.986;2024-01-07T06:09:58;1.00;;;1.00;;
75928;SDS011;64606;44.062;2.986;2024-01-07T06:12:25;2.15;;;0.90;;
75928;SDS011;64606;44.062;2.986;2024-01-07T06:14:51;0.75;;;0.75;;
75928;SDS011;64606;44.062;2.986;2024-01-07T06:17:17;1.13;;;0.90;;
75928;SDS011;64606;44.062;2.986;2024-01-07T06:19:43;0.80;;;0.80;;
75928;SDS011;64606;44.062;2.986;2024-01-07T06:22:09;0.70;;;0.70;;
75928;SDS011;64606;44.062;2.986;2024-01-07T06:24:35;1.83;;;0.70;;
75928;SDS011;64606;44.062;2.986;2024-01-07T06:27:02;0.80;;;0.80;;
75928;SDS011;64606;44.062;2.986;2024-01-07T06:29:29;0.80;;;0.80;;
75928;SDS011;64606;44.062;2.986;2024-01-07T06:31:55;0.80;;;0.80;;
75928;SDS011;64606;44.062;2.986;2024-01-07T06:34:21;0.80;;;0.80;;
75928;SDS011;64606;44.062;2.986;2024-01-07T06:36:48;0.80;;;0.80;;
75928;SDS011;64606;44.062;2.986;2024-01-07T06:39:14;0.60;;;0.60;;
75928;SDS011;64606;44.062;2.986;2024-01-07T06:41:40;0.80;;;0.80;;
75928;SDS011;64606;44.062;2.986;2024-01-07T06:44:06;0.60;;;0.60;;
75928;SDS011;64606;44.062;2.986;2024-01-07T06:46:32;0.60;;;0.60;;
75928;SDS011;64606;44.062;2.986;2024-01-07T06:48:59;0.82;;;0.70;;
75928;SDS011;64606;44.062;2.986;2024-01-07T06:51:26;0.60;;;0.60;;
75928;SDS011;64606;44.062;2.986;2024-01-07T06:53:52;1.27;;;0.80;;
75928;SDS011;64606;44.062;2.986;2024-01-07T06:56:18;0.70;;;0.70;;
75928;SDS011;64606;44.062;2.986;2024-01-07T06:58:44;0.60;;;0.60;;
75928;SDS011;64606;44.062;2.986;2024-01-07T07:01:10;0.70;;;0.70;;
75928;SDS011;64606;44.062;2.986;2024-01-07T07:03:37;1.08;;;0.70;;
75928;SDS011;64606;44.062;2.986;2024-01-07T07:06:03;0.70;;;0.70;;
75928;SDS011;64606;44.062;2.986;2024-01-07T07:08:29;0.60;;;0.60;;
75928;SDS011;64606;44.062;2.986;2024-01-07T07:10:55;0.95;;;0.70;;
75928;SDS011;64606;44.062;2.986;2024-01-07T07:13:21;0.70;;;0.70;;
75928;SDS011;64606;44.062;2.986;2024-01-07T07:15:47;0.70;;;0.70;;
75928;SDS011;64606;44.062;2.986;2024-01-07T07:18:13;1.65;;;0.80;;
75928;SDS011;64606;44.062;2.986;2024-01-07T07:20:39;0.82;;;0.60;;
75928;SDS011;64606;44.062;2.986;2024-01-07T07:23:06;0.70;;;0.70;;
75928;SDS011;64606;44.062;2.986;2024-01-07T07:25:32;0.85;;;0.80;;
75928;SDS011;64606;44.062;2.986;2024-01-07T07:27:58;0.60;;;0.60;;
75928;SDS011;64606;44.062;2.986;2024-01-07T07:30:24;0.70;;;0.70;;
75928;SDS011;64606;44.062;2.986;2024-01-07T07:32:50;0.93;;;0.82;;
75928;SDS011;64606;44.062;2.986;2024-01-07T07:35:16;0.70;;;0.70;;
75928;SDS011;64606;44.062;2.986;2024-01-07T07:37:42;0.70;;;0.70;;
75928;SDS011;64606;44.062;2.986;2024-01-07T07:40:09;0.75;;;0.75;;
75928;SDS011;64606;44.062;2.986;2024-01-07T07:42:38;0.88;;;0.77;;
75928;SDS011;64606;44.062;2.986;2024-01-07T07:45:04;0.70;;;0.70;;
75928;SDS011;64606;44.062;2.986;2024-01-07T07:47:30;1.35;;;0.82;;
75928;SDS011;64606;44.062;2.986;2024-01-07T07:49:56;1.13;;;0.80;;
75928;SDS011;64606;44.062;2.986;2024-01-07T07:52:23;1.00;;;0.90;;
75928;SDS011;64606;44.062;2.986;2024-01-07T07:54:53;1.17;;;0.88;;
75928;SDS011;64606;44.062;2.986;2024-01-07T07:57:20;1.33;;;0.80;;
75928;SDS011;64606;44.062;2.986;2024-01-07T07:59:47;1.45;;;0.63;;
75928;SDS011;64606;44.062;2.986;2024-01-07T08:02:14;1.67;;;0.85;;
75928;SDS011;64606;44.062;2.986;2024-01-07T08:04:40;1.00;;;1.00;;
75928;SDS011;64606;44.062;2.986;2024-01-07T08:07:08;1.33;;;1.17;;
75928;SDS011;64606;44.062;2.986;2024-01-07T08:09:34;3.05;;;1.05;;
75928;SDS011;64606;44.062;2.986;2024-01-07T08:12:05;1.20;;;1.05;;
75928;SDS011;64606;44.062;2.986;2024-01-07T08:14:32;1.23;;;0.85;;
75928;SDS011;64606;44.062;2.986;2024-01-07T08:16:58;1.02;;;0.90;;
75928;SDS011;64606;44.062;2.986;2024-01-07T08:19:24;1.10;;;1.00;;
75928;SDS011;64606;44.062;2.986;2024-01-07T08:21:50;1.08;;;1.00;;
75928;SDS011;64606;44.062;2.986;2024-01-07T08:24:18;0.90;;;0.90;;
75928;SDS011;64606;44.062;2.986;2024-01-07T08:26:44;1.13;;;0.90;;
75928;SDS011;64606;44.062;2.986;2024-01-07T08:29:10;0.90;;;0.90;;
75928;SDS011;64606;44.062;2.986;2024-01-07T08:31:36;0.75;;;0.75;;
75928;SDS011;64606;44.062;2.986;2024-01-07T08:34:02;2.20;;;1.20;;
75928;SDS011;64606;44.062;2.986;2024-01-07T08:36:28;1.45;;;1.00;;
75928;SDS011;64606;44.062;2.986;2024-01-07T08:38:55;1.17;;;0.85;;
75928;SDS011;64606;44.062;2.986;2024-01-07T08:41:21;0.70;;;0.70;;
75928;SDS011;64606;44.062;2.986;2024-01-07T08:43:47;1.73;;;1.00;;
75928;SDS011;64606;44.062;2.986;2024-01-07T08:46:13;0.90;;;0.90;;
75928;SDS011;64606;44.062;2.986;2024-01-07T08:48:39;0.88;;;0.85;;
75928;SDS011;64606;44.062;2.986;2024-01-07T08:51:05;1.33;;;0.70;;
75928;SDS011;64606;44.062;2.986;2024-01-07T08:53:31;0.80;;;0.80;;
75928;SDS011;64606;44.062;2.986;2024-01-07T08:55:58;1.05;;;0.80;;
75928;SDS011;64606;44.062;2.986;2024-01-07T08:58:24;1.00;;;0.90;;
75928;SDS011;64606;44.062;2.986;2024-01-07T09:00:50;1.15;;;0.90;;
75928;SDS011;64606;44.062;2.986;2024-01-07T09:03:16;0.90;;;0.90;;
75928;SDS011;64606;44.062;2.986;2024-01-07T09:05:43;1.65;;;0.90;;
75928;SDS011;64606;44.062;2.986;2024-01-07T09:08:09;0.93;;;0.90;;
75928;SDS011;64606;44.062;2.986;2024-01-07T09:10:36;0.90;;;0.90;;
75928;SDS011;64606;44.062;2.986;2024-01-07T09:13:03;0.90;;;0.80;;
75928;SDS011;64606;44.062;2.986;2024-01-07T09:15:29;0.90;;;0.90;;
75928;SDS011;64606;44.062;2.986;2024-01-07T09:17:55;0.80;;;0.80;;
75928;SDS011;64606;44.062;2.986;2024-01-07T09:20:21;0.90;;;0.90;;
75928;SDS011;64606;44.062;2.986;2024-01-07T09:22:47;0.88;;;0.88;;
75928;SDS011;64606;44.062;2.986;2024-01-07T09:25:13;0.90;;;0.90;;
75928;SDS011;64606;44.062;2.986;2024-01-07T09:27:40;0.88;;;0.88;;
75928;SDS011;64606;44.062;2.986;2024-01-07T09:30:06;0.80;;;0.80;;
75928;SDS011;64606;44.062;2.986;2024-01-07T09:32:35;0.70;;;0.70;;
75928;SDS011;64606;44.062;2.986;2024-01-07T09:35:01;0.95;;;0.90;;
75928;SDS011;64606;44.062;2.986;2024-01-07T09:37:30;0.85;;;0.80;;
75928;SDS011;64606;44.062;2.986;2024-01-07T09:39:56;1.75;;;0.70;;
75928;SDS011;64606;44.062;2.986;2024-01-07T09:42:23;0.70;;;0.70;;
75928;SDS011;64606;44.062;2.986;2024-01-07T09:44:50;0.65;;;0.65;;
75928;SDS011;64606;44.062;2.986;2024-01-07T09:47:16;1.63;;;0.95;;
75928;SDS011;64606;44.062;2.986;2024-01-07T09:49:43;0.80;;;0.80;;
75928;SDS011;64606;44.062;2.986;2024-01-07T09:52:10;9.32;;;0.90;;
75928;SDS011;64606;44.062;2.986;2024-01-07T09:54:37;1.00;;;0.90;;
75928;SDS011;64606;44.062;2.986;2024-01-07T09:57:03;2.70;;;1.00;;
75928;SDS011;64606;44.062;2.986;2024-01-07T09:59:34;2.47;;;1.23;;
75928;SDS011;64606;44.062;2.986;2024-01-07T10:02:01;0.88;;;0.88;;
75928;SDS011;64606;44.062;2.986;2024-01-07T10:04:28;1.45;;;1.00;;
75928;SDS011;64606;44.062;2.986;2024-01-07T10:06:54;0.90;;;0.90;;
75928;SDS011;64606;44.062;2.986;2024-01-07T10:09:24;2.13;;;1.10;;
75928;SDS011;64606;44.062;2.986;2024-01-07T10:11:51;1.30;;;1.10;;
75928;SDS011;64606;44.062;2.986;2024-01-07T10:14:18;1.05;;;1.05;;
75928;SDS011;64606;44.062;2.986;2024-01-07T10:16:47;1.20;;;1.10;;
75928;SDS011;64606;44.062;2.986;2024-01-07T10:19:20;1.83;;;1.10;;
75928;SDS011;64606;44.062;2.986;2024-01-07T10:21:47;1.02;;;1.02;;
75928;SDS011;64606;44.062;2.986;2024-01-07T10:24:24;1.10;;;1.00;;
75928;SDS011;64606;44.062;2.986;2024-01-07T10:26:50;2.00;;;1.08;;
75928;SDS011;64606;44.062;2.986;2024-01-07T10:29:17;1.17;;;0.90;;
75928;SDS011;64606;44.062;2.986;2024-01-07T10:31:43;0.93;;;0.90;;
75928;SDS011;64606;44.062;2.986;2024-01-07T10:34:10;2.58;;;1.00;;
75928;SDS011;64606;44.062;2.986;2024-01-07T10:36:36;2.92;;;1.08;;
75928;SDS011;64606;44.062;2.986;2024-01-07T10:39:02;2.17;;;1.08;;
75928;SDS011;64606;44.062;2.986;2024-01-07T10:41:28;13.00;;;1.45;;
75928;SDS011;64606;44.062;2.986;2024-01-07T10:43:55;9.75;;;1.42;;
75928;SDS011;64606;44.062;2.986;2024-01-07T10:46:21;16.20;;;2.08;;
75928;SDS011;64606;44.062;2.986;2024-01-07T10:48:51;7.93;;;1.65;;
75928;SDS011;64606;44.062;2.986;2024-01-07T10:51:19;4.38;;;1.20;;
75928;SDS011;64606;44.062;2.986;2024-01-07T10:53:46;3.00;;;1.38;;
75928;SDS011;64606;44.062;2.986;2024-01-07T10:56:15;5.72;;;1.45;;
75928;SDS011;64606;44.062;2.986;2024-01-07T10:58:42;5.75;;;1.50;;
75928;SDS011;64606;44.062;2.986;2024-01-07T11:01:08;17.23;;;1.65;;
75928;SDS011;64606;44.062;2.986;2024-01-07T11:06:03;7.47;;;1.75;;
75928;SDS011;64606;44.062;2.986;2024-01-07T11:08:38;12.75;;;2.17;;
75928;SDS011;64606;44.062;2.986;2024-01-07T11:11:11;8.15;;;1.70;;
75928;SDS011;64606;44.062;2.986;2024-01-07T11:13:38;6.47;;;1.73;;
75928;SDS011;64606;44.062;2.986;2024-01-07T11:16:05;6.47;;;1.60;;
75928;SDS011;64606;44.062;2.986;2024-01-07T11:18:37;2.25;;;1.50;;
75928;SDS011;64606;44.062;2.986;2024-01-07T11:21:05;6.90;;;1.88;;
75928;SDS011;64606;44.062;2.986;2024-01-07T11:23:42;8.32;;;1.83;;
75928;SDS011;64606;44.062;2.986;2024-01-07T11:26:08;4.03;;;2.10;;
75928;SDS011;64606;44.062;2.986;2024-01-07T11:28:48;3.08;;;1.80;;
75928;SDS011;64606;44.062;2.986;2024-01-07T11:31:16;6.60;;;1.88;;
75928;SDS011;64606;44.062;2.986;2024-01-07T11:33:46;2.75;;;1.67;;
75928;SDS011;64606;44.062;2.986;2024-01-07T11:36:12;2.10;;;1.40;;
75928;SDS011;64606;44.062;2.986;2024-01-07T11:38:44;3.17;;;1.45;;
75928;SDS011;64606;44.062;2.986;2024-01-07T11:41:13;2.03;;;1.58;;
75928;SDS011;64606;44.062;2.986;2024-01-07T11:43:55;2.20;;;1.63;;
75928;SDS011;64606;44.062;2.986;2024-01-07T11:46:23;1.73;;;1.55;;
75928;SDS011;64606;44.062;2.986;2024-01-07T11:48:50;2.50;;;1.65;;
75928;SDS011;64606;44.062;2.986;2024-01-07T11:51:16;2.28;;;1.52;;
75928;SDS011;64606;44.062;2.986;2024-01-07T11:53:44;2.45;;;1.35;;
75928;SDS011;64606;44.062;2.986;2024-01-07T11:56:12;3.65;;;1.38;;
75928;SDS011;64606;44.062;2.986;2024-01-07T11:58:39;2.60;;;1.52;;
75928;SDS011;64606;44.062;2.986;2024-01-07T12:01:06;2.67;;;1.30;;
75928;SDS011;64606;44.062;2.986;2024-01-07T12:03:32;4.25;;;1.60;;
75928;SDS011;64606;44.062;2.986;2024-01-07T12:05:59;2.00;;;1.25;;
75928;SDS011;64606;44.062;2.986;2024-01-07T12:08:25;1.55;;;1.30;;
75928;SDS011;64606;44.062;2.986;2024-01-07T12:10:51;1.30;;;1.20;;
75928;SDS011;64606;44.062;2.986;2024-01-07T12:13:17;1.95;;;0.90;;
75928;SDS011;64606;44.062;2.986;2024-01-07T12:15:45;1.40;;;1.30;;
75928;SDS011;64606;44.062;2.986;2024-01-07T12:18:11;0.98;;;0.90;;
75928;SDS011;64606;44.062;2.986;2024-01-07T12:20:37;1.30;;;1.08;;
75928;SDS011;64606;44.062;2.986;2024-01-07T12:23:07;1.95;;;0.80;;
75928;SDS011;64606;44.062;2.986;2024-01-07T12:25:33;1.65;;;1.10;;
75928;SDS011;64606;44.062;2.986;2024-01-07T12:27:59;1.45;;;1.10;;
75928;SDS011;64606;44.062;2.986;2024-01-07T12:30:26;1.92;;;1.00;;
75928;SDS011;64606;44.062;2.986;2024-01-07T12:32:52;2.38;;;1.13;;
75928;SDS011;64606;44.062;2.986;2024-01-07T12:35:18;1.95;;;0.90;;
75928;SDS011;64606;44.062;2.986;2024-01-07T12:37:44;1.42;;;0.90;;
75928;SDS011;64606;44.062;2.986;2024-01-07T12:40:11;0.85;;;0.85;;
75928;SDS011;64606;44.062;2.986;2024-01-07T12:42:38;1.17;;;1.05;;
75928;SDS011;64606;44.062;2.986;2024-01-07T12:45:13;2.08;;;1.10;;
75928;SDS011;64606;44.062;2.986;2024-01-07T12:47:40;1.33;;;0.77;;
75928;SDS011;64606;44.062;2.986;2024-01-07T12:50:06;1.10;;;0.85;;
75928;SDS011;64606;44.062;2.986;2024-01-07T12:52:36;2.03;;;1.05;;
75928;SDS011;64606;44.062;2.986;2024-01-07T12:55:03;3.30;;;0.93;;
75928;SDS011;64606;44.062;2.986;2024-01-07T12:57:30;2.80;;;0.90;;
75928;SDS011;64606;44.062;2.986;2024-01-07T12:59:56;2.00;;;0.98;;
75928;SDS011;64606;44.062;2.986;2024-01-07T13:02:22;4.63;;;0.90;;
75928;SDS011;64606;44.062;2.986;2024-01-07T13:04:49;3.08;;;0.85;;
75928;SDS011;64606;44.062;2.986;2024-01-07T13:07:15;1.17;;;0.80;;
75928;SDS011;64606;44.062;2.986;2024-01-07T13:09:41;4.20;;;1.25;;
75928;SDS011;64606;44.062;2.986;2024-01-07T13:12:09;5.68;;;1.10;;
75928;SDS011;64606;44.062;2.986;2024-01-07T13:14:36;6.78;;;1.15;;
75928;SDS011;64606;44.062;2.986;2024-01-07T13:17:02;5.78;;;1.10;;
75928;SDS011;64606;44.062;2.986;2024-01-07T13:19:29;4.25;;;1.35;;
75928;SDS011;64606;44.062;2.986;2024-01-07T13:21:55;5.63;;;1.10;;
75928;SDS011;64606;44.062;2.986;2024-01-07T13:24:23;8.35;;;0.90;;
75928;SDS011;64606;44.062;2.986;2024-01-07T13:26:49;4.50;;;1.05;;
75928;SDS011;64606;44.062;2.986;2024-01-07T13:29:15;9.73;;;1.30;;
75928;SDS011;64606;44.062;2.986;2024-01-07T13:31:42;4.43;;;1.10;;
75928;SDS011;64606;44.062;2.986;2024-01-07T13:34:08;4.10;;;1.00;;
75928;SDS011;64606;44.062;2.986;2024-01-07T13:36:34;2.25;;;1.10;;
75928;SDS011;64606;44.062;2.986;2024-01-07T13:39:00;6.00;;;1.20;;
75928;SDS011;64606;44.062;2.986;2024-01-07T13:41:27;5.35;;;1.08;;
75928;SDS011;64606;44.062;2.986;2024-01-07T13:43:57;2.92;;;1.20;;
75928;SDS011;64606;44.062;2.986;2024-01-07T13:46:23;7.03;;;1.10;;
75928;SDS011;64606;44.062;2.986;2024-01-07T13:48:50;13.68;;;1.50;;
75928;SDS011;64606;44.062;2.986;2024-01-07T13:51:19;11.00;;;1.67;;
75928;SDS011;64606;44.062;2.986;2024-01-07T13:53:45;11.80;;;1.45;;
75928;SDS011;64606;44.062;2.986;2024-01-07T13:56:12;14.27;;;1.50;;
75928;SDS011;64606;44.062;2.986;2024-01-07T13:58:38;4.70;;;1.02;;
75928;SDS011;64606;44.062;2.986;2024-01-07T14:01:04;6.50;;;1.10;;
75928;SDS011;64606;44.062;2.986;2024-01-07T14:03:30;2.95;;;1.10;;
75928;SDS011;64606;44.062;2.986;2024-01-07T14:05:58;7.50;;;1.50;;
75928;SDS011;64606;44.062;2.986;2024-01-07T14:08:25;4.93;;;1.20;;
75928;SDS011;64606;44.062;2.986;2024-01-07T14:10:52;4.18;;;1.20;;
75928;SDS011;64606;44.062;2.986;2024-01-07T14:13:18;3.85;;;1.13;;
75928;SDS011;64606;44.062;2.986;2024-01-07T14:15:44;6.13;;;1.00;;
75928;SDS011;64606;44.062;2.986;2024-01-07T14:18:10;3.20;;;1.10;;
75928;SDS011;64606;44.062;2.986;2024-01-07T14:20:40;3.05;;;1.00;;
75928;SDS011;64606;44.062;2.986;2024-01-07T14:23:07;2.85;;;1.20;;
75928;SDS011;64606;44.062;2.986;2024-01-07T14:25:34;1.60;;;1.00;;
75928;SDS011;64606;44.062;2.986;2024-01-07T14:28:01;1.95;;;0.93;;
75928;SDS011;64606;44.062;2.986;2024-01-07T14:30:29;3.78;;;0.93;;
75928;SDS011;64606;44.062;2.986;2024-01-07T14:32:55;2.60;;;1.08;;
75928;SDS011;64606;44.062;2.986;2024-01-07T14:35:22;1.15;;;0.80;;
75928;SDS011;64606;44.062;2.986;2024-01-07T14:37:51;3.92;;;1.00;;
75928;SDS011;64606;44.062;2.986;2024-01-07T14:40:20;3.17;;;1.00;;
75928;SDS011;64606;44.062;2.986;2024-01-07T14:42:46;0.80;;;0.80;;
75928;SDS011;64606;44.062;2.986;2024-01-07T14:45:12;2.55;;;1.08;;
75928;SDS011;64606;44.062;2.986;2024-01-07T14:47:38;1.23;;;0.80;;